createdAt,value
2022-08-10T00:01:54.330Z,15.06
2022-08-10T00:04:24.419Z,15.06
2022-08-10T00:06:53.901Z,15.06
2022-08-10T00:09:24.242Z,15.06
2022-08-10T00:11:52.298Z,15.06
2022-08-10T00:14:20.374Z,15.05
2022-08-10T00:16:48.551Z,15.04
2022-08-10T00:19:18.171Z,15.02
2022-08-10T00:21:48.387Z,15.01
2022-08-10T00:24:16.655Z,14.99
2022-08-10T00:27:52.660Z,14.97
2022-08-10T00:29:33.558Z,14.96
2022-08-10T00:32:02.159Z,14.96
2022-08-10T00:34:33.263Z,14.95
2022-08-10T00:37:02.209Z,14.93
2022-08-10T00:39:34.464Z,14.91
2022-08-10T00:42:08.461Z,14.91
2022-08-10T00:44:42.038Z,14.91
2022-08-10T00:47:22.550Z,14.89
2022-08-10T00:49:59.716Z,14.86
2022-08-10T00:52:34.653Z,14.85
2022-08-10T00:55:05.437Z,14.81
2022-08-10T00:57:35.740Z,14.79
2022-08-10T01:00:06.561Z,14.76
2022-08-10T01:02:34.983Z,14.74
2022-08-10T01:05:10.199Z,14.73
2022-08-10T01:08:04.852Z,14.70
2022-08-10T01:10:59.049Z,14.67
2022-08-10T01:13:42.791Z,14.63
2022-08-10T01:16:16.595Z,14.62
2022-08-10T01:19:02.777Z,14.60
2022-08-10T01:22:01.062Z,14.58
2022-08-10T01:24:47.360Z,14.55
2022-08-10T01:27:39.085Z,14.52
2022-08-10T01:30:14.449Z,14.50
2022-08-10T01:32:48.646Z,14.47
2022-08-10T01:35:50.186Z,14.48
2022-08-10T01:38:34.959Z,14.45
2022-08-10T01:41:12.951Z,14.44
2022-08-10T01:43:58.943Z,14.41
2022-08-10T01:46:35.216Z,14.41
2022-08-10T01:49:08.907Z,14.39
2022-08-10T01:51:49.272Z,14.38
2022-08-10T01:54:21.535Z,14.38
2022-08-10T01:56:54.221Z,14.37
2022-08-10T01:59:40.459Z,14.35
2022-08-10T02:02:12.007Z,14.34
2022-08-10T02:04:43.718Z,14.32
2022-08-10T02:07:16.499Z,14.28
2022-08-10T02:09:53.889Z,14.26
2022-08-10T02:12:30.388Z,14.23
2022-08-10T02:15:04.361Z,14.21
2022-08-10T02:17:59.003Z,14.19
2022-08-10T02:20:31.660Z,14.18
2022-08-10T02:23:05.555Z,14.16
2022-08-10T02:25:41.774Z,14.13
2022-08-10T02:28:30.523Z,14.10
2022-08-10T02:31:11.769Z,14.07
2022-08-10T02:33:56.702Z,14.04
2022-08-10T02:36:31.543Z,13.99
2022-08-10T02:39:03.891Z,13.96
2022-08-10T02:45:14.713Z,13.93
2022-08-10T02:45:22.446Z,13.91
2022-08-10T02:47:51.131Z,13.90
2022-08-10T02:50:27.837Z,13.89
2022-08-10T02:53:56.479Z,13.87
2022-08-10T02:56:32.602Z,13.84
2022-08-10T02:59:40.363Z,13.81
2022-08-10T03:02:14.875Z,13.79
2022-08-10T03:04:58.093Z,13.77
2022-08-10T03:07:43.153Z,13.75
2022-08-10T03:10:20.706Z,13.74
2022-08-10T03:12:53.234Z,13.74
2022-08-10T03:15:27.906Z,13.74
2022-08-10T03:17:59.216Z,13.73
2022-08-10T03:20:38.274Z,13.71
2022-08-10T03:23:18.750Z,13.69
2022-08-10T03:25:53.111Z,13.69
2022-08-10T03:28:27.482Z,13.69
2022-08-10T03:30:59.863Z,13.68
2022-08-10T03:33:32.948Z,13.67
2022-08-10T03:36:41.907Z,13.67
2022-08-10T03:38:53.617Z,13.66
2022-08-10T03:41:35.611Z,13.67
2022-08-10T03:44:07.084Z,13.70
2022-08-10T03:46:38.757Z,13.71
2022-08-10T03:49:07.857Z,13.73
2022-08-10T03:51:39.487Z,13.76
2022-08-10T03:54:08.745Z,13.80
2022-08-10T03:56:39.078Z,13.84
2022-08-10T03:59:14.399Z,13.88
2022-08-10T04:02:52.879Z,13.93
2022-08-10T04:04:33.875Z,14.00
2022-08-10T04:07:04.936Z,14.05
2022-08-10T04:09:53.476Z,14.10
2022-08-10T04:12:24.969Z,14.18
2022-08-10T04:14:53.878Z,14.25
2022-08-10T04:18:03.692Z,14.31
2022-08-10T04:20:26.288Z,14.38
2022-08-10T04:23:28.048Z,14.46
2022-08-10T04:25:57.027Z,14.54
2022-08-10T04:28:26.750Z,14.61
2022-08-10T04:30:57.586Z,14.67
2022-08-10T04:33:27.553Z,14.74
2022-08-10T04:35:57.321Z,14.82
2022-08-10T04:38:26.647Z,14.89
2022-08-10T04:40:55.090Z,14.97
2022-08-10T04:43:23.436Z,15.04
2022-08-10T04:45:52.018Z,15.12
2022-08-10T04:48:43.325Z,15.20
2022-08-10T04:51:17.763Z,15.28
2022-08-10T04:54:03.793Z,15.35
2022-08-10T04:56:37.482Z,15.44
2022-08-10T04:59:07.896Z,15.52
2022-08-10T05:02:28.811Z,15.60
2022-08-10T05:04:34.386Z,15.72
2022-08-10T05:07:16.563Z,15.82
2022-08-10T05:10:03.559Z,15.91
2022-08-10T05:12:38.976Z,16.02
2022-08-10T05:15:12.690Z,16.11
2022-08-10T05:18:08.162Z,16.20
2022-08-10T05:20:37.950Z,16.32
2022-08-10T05:23:06.043Z,16.43
2022-08-10T05:25:38.298Z,16.54
2022-08-10T05:28:07.091Z,16.67
2022-08-10T05:30:35.259Z,16.79
2022-08-10T05:33:08.028Z,16.94
2022-08-10T05:35:56.312Z,17.11
2022-08-10T05:38:28.473Z,17.34
2022-08-10T05:41:02.800Z,17.68
2022-08-10T05:43:31.181Z,18.49
2022-08-10T05:46:18.349Z,19.69
2022-08-10T05:48:56.791Z,21.06
2022-08-10T05:51:30.374Z,22.17
2022-08-10T05:54:05.689Z,23.05
2022-08-10T05:56:57.033Z,23.75
2022-08-10T06:00:30.814Z,24.25
2022-08-10T06:02:33.641Z,24.80
2022-08-10T06:05:11.326Z,25.14
2022-08-10T06:07:48.818Z,25.24
2022-08-10T06:10:31.629Z,25.48
2022-08-10T06:13:26.703Z,25.41
2022-08-10T06:15:57.465Z,24.82
2022-08-10T06:18:26.250Z,24.20
2022-08-10T06:21:01.010Z,23.76
2022-08-10T06:23:30.899Z,23.38
2022-08-10T06:26:10.762Z,23.06
2022-08-10T06:29:03.760Z,22.71
2022-08-10T06:31:53.879Z,22.29
2022-08-10T06:34:26.318Z,21.96
2022-08-10T06:36:59.744Z,21.79
2022-08-10T06:39:36.568Z,21.86
2022-08-10T06:42:20.155Z,22.52
2022-08-10T06:45:06.792Z,23.35
2022-08-10T06:47:45.230Z,24.18
2022-08-10T06:50:58.089Z,24.68
2022-08-10T06:53:52.279Z,25.28
2022-08-10T06:56:37.514Z,25.42
2022-08-10T06:59:21.818Z,25.18
2022-08-10T07:02:09.948Z,25.30
2022-08-10T07:04:44.862Z,25.86
2022-08-10T07:07:19.805Z,26.37
2022-08-10T07:09:51.405Z,26.56
2022-08-10T07:12:22.506Z,26.35
2022-08-10T07:14:52.218Z,26.24
2022-08-10T07:17:24.487Z,25.95
2022-08-10T07:19:58.186Z,25.55
2022-08-10T07:23:22.682Z,25.00
2022-08-10T07:25:25.349Z,24.37
2022-08-10T07:27:58.637Z,24.19
2022-08-10T07:30:37.470Z,24.04
2022-08-10T07:33:07.741Z,23.83
2022-08-10T07:35:42.713Z,23.95
2022-08-10T07:38:18.408Z,24.43
2022-08-10T07:40:49.167Z,25.01
2022-08-10T07:43:20.684Z,25.75
2022-08-10T07:45:50.076Z,26.51
2022-08-10T07:48:34.730Z,27.20
2022-08-10T07:51:04.444Z,27.85
2022-08-10T07:53:38.842Z,28.40
2022-08-10T07:56:21.226Z,28.94
2022-08-10T07:59:09.731Z,29.44
2022-08-10T08:01:50.873Z,29.89
2022-08-10T08:04:24.266Z,30.01
2022-08-10T08:06:54.299Z,30.17
2022-08-10T08:09:25.092Z,30.46
2022-08-10T08:11:55.246Z,30.66
2022-08-10T08:14:24.553Z,30.78
2022-08-10T08:16:55.490Z,30.91
2022-08-10T08:19:35.430Z,31.11
2022-08-10T08:24:06.310Z,31.22
2022-08-10T08:24:57.552Z,31.10
2022-08-10T08:27:27.545Z,30.50
2022-08-10T08:29:56.322Z,29.68
2022-08-10T08:32:28.146Z,29.02
2022-08-10T08:35:02.394Z,28.80
2022-08-10T08:38:30.242Z,29.18
2022-08-10T08:40:33.990Z,29.79
2022-08-10T08:43:31.503Z,30.39
2022-08-10T08:46:18.634Z,30.93
2022-08-10T08:49:03.542Z,31.25
2022-08-10T08:52:07.801Z,31.61
2022-08-10T08:55:52.342Z,32.03
2022-08-10T13:52:12.855Z,30.68
2022-08-10T13:54:43.085Z,32.19
2022-08-10T13:57:12.796Z,33.54
2022-08-10T14:00:36.476Z,34.60
2022-08-10T14:02:58.835Z,35.24
2022-08-10T14:05:38.130Z,35.18
2022-08-10T14:08:12.793Z,35.09
2022-08-10T14:11:10.103Z,34.42
2022-08-10T14:13:36.375Z,33.40
2022-08-10T14:16:07.568Z,32.64
2022-08-10T14:18:37.556Z,31.82
2022-08-10T14:21:06.667Z,30.90
2022-08-10T14:23:52.625Z,30.25
2022-08-10T14:26:26.963Z,29.75
2022-08-10T14:29:02.879Z,29.36
2022-08-10T14:31:33.994Z,29.00
2022-08-10T14:34:05.732Z,28.72
2022-08-10T14:37:05.715Z,28.56
2022-08-10T14:39:45.250Z,28.40
2022-08-10T14:42:27.777Z,28.31
2022-08-10T14:45:02.558Z,28.23
2022-08-10T14:47:56.031Z,28.13
2022-08-10T14:50:32.325Z,28.08
2022-08-10T14:53:26.547Z,28.04
2022-08-10T14:56:02.148Z,28.34
2022-08-10T14:59:05.666Z,29.33
2022-08-10T15:02:38.178Z,30.57
2022-08-10T15:04:26.690Z,31.03
2022-08-10T15:07:12.215Z,32.36
2022-08-10T15:10:00.469Z,32.59
2022-08-10T15:12:36.227Z,32.02
2022-08-10T15:15:09.732Z,31.36
2022-08-10T15:17:43.380Z,30.73
2022-08-10T15:20:21.215Z,30.22
2022-08-10T15:23:01.384Z,29.78
2022-08-10T15:25:30.714Z,29.34
2022-08-10T15:28:10.617Z,29.00
2022-08-10T15:30:51.715Z,28.73
2022-08-10T15:34:02.395Z,28.43
2022-08-10T15:37:02.347Z,28.16
2022-08-10T15:40:26.079Z,27.99
2022-08-10T15:42:55.461Z,27.90
2022-08-10T15:45:27.100Z,27.82
2022-08-10T15:48:03.361Z,27.77
2022-08-10T15:50:44.064Z,27.72
2022-08-10T15:53:28.398Z,27.68
2022-08-10T15:56:06.919Z,27.58
2022-08-10T15:58:41.468Z,27.52
2022-08-10T16:02:15.006Z,27.43
2022-08-10T16:04:11.655Z,27.27
2022-08-10T16:06:56.124Z,27.11
2022-08-10T16:10:22.016Z,26.93
2022-08-10T16:13:00.144Z,26.68
2022-08-10T16:15:31.983Z,26.54
2022-08-10T16:18:29.388Z,26.45
2022-08-10T16:21:03.250Z,26.30
2022-08-10T16:23:38.048Z,26.15
2022-08-10T16:26:14.931Z,26.05
2022-08-10T16:29:02.934Z,26.05
2022-08-10T16:31:35.271Z,26.10
2022-08-10T16:34:08.064Z,26.08
2022-08-10T16:36:47.820Z,26.07
2022-08-10T16:40:00.127Z,26.05
2022-08-10T16:42:49.480Z,26.01
2022-08-10T16:45:41.675Z,25.93
2022-08-10T16:48:11.392Z,25.83
2022-08-10T16:50:45.723Z,25.74
2022-08-10T16:53:17.463Z,25.64
2022-08-10T16:56:07.253Z,25.56
2022-08-10T16:58:39.360Z,25.48
2022-08-10T17:01:37.164Z,25.39
2022-08-10T17:04:10.206Z,25.26
2022-08-10T17:06:43.342Z,25.18
2022-08-10T17:09:24.149Z,25.07
2022-08-10T17:11:55.733Z,24.93
2022-08-10T17:14:29.069Z,24.80
2022-08-10T17:17:03.005Z,24.62
2022-08-10T17:19:37.845Z,24.45
2022-08-10T17:22:21.405Z,24.32
2022-08-10T17:24:55.525Z,24.20
2022-08-10T17:28:04.318Z,24.08
2022-08-10T17:30:34.343Z,23.95
2022-08-10T17:33:19.803Z,23.82
2022-08-10T17:35:50.741Z,23.73
2022-08-10T17:38:26.435Z,23.63
2022-08-10T17:40:56.856Z,23.52
2022-08-10T17:43:58.427Z,23.42
2022-08-10T17:46:17.571Z,23.29
2022-08-10T17:48:45.615Z,23.20
2022-08-10T17:51:16.364Z,23.12
2022-08-10T17:53:50.832Z,23.01
2022-08-10T17:56:23.242Z,22.88
2022-08-10T17:58:58.215Z,22.74
2022-08-10T18:01:41.501Z,22.60
2022-08-10T18:04:20.454Z,22.44
2022-08-10T18:06:58.466Z,22.29
2022-08-10T18:09:50.217Z,22.15
2022-08-10T18:12:53.333Z,21.98
2022-08-10T18:15:27.965Z,21.84
2022-08-10T18:18:01.175Z,21.71
2022-08-10T18:20:37.840Z,21.58
2022-08-10T18:23:09.200Z,21.43
2022-08-10T18:25:40.585Z,21.31
2022-08-10T18:28:15.281Z,21.19
2022-08-10T18:30:50.803Z,21.07
2022-08-10T18:33:27.122Z,20.95
2022-08-10T18:36:00.793Z,20.83
2022-08-10T18:38:30.894Z,20.68
2022-08-10T18:41:15.859Z,20.56
2022-08-10T18:44:04.678Z,20.44
2022-08-10T18:46:52.760Z,20.34
2022-08-10T18:49:27.697Z,20.21
2022-08-10T18:51:59.405Z,20.07
2022-08-10T18:54:44.176Z,19.95
2022-08-10T18:57:51.395Z,19.83
2022-08-10T19:00:22.298Z,19.70
2022-08-10T19:03:22.052Z,19.62
2022-08-10T19:06:38.761Z,19.54
2022-08-10T19:09:45.879Z,19.48
2022-08-10T19:12:30.062Z,19.43
2022-08-10T19:15:28.581Z,19.38
2022-08-10T19:18:42.120Z,19.31
2022-08-10T19:21:43.116Z,19.26
2022-08-10T19:24:37.097Z,19.18
2022-08-10T19:27:15.637Z,19.10
2022-08-10T19:30:08.309Z,19.03
2022-08-10T19:33:20.505Z,18.95
2022-08-10T19:36:35.992Z,18.88
2022-08-10T19:39:31.625Z,18.81
2022-08-10T19:42:35.316Z,18.69
2022-08-10T19:46:00.887Z,18.59
2022-08-10T19:48:20.100Z,18.49
2022-08-10T19:51:18.881Z,18.41
2022-08-10T19:53:51.356Z,18.33
2022-08-10T19:56:39.204Z,18.26
2022-08-10T19:59:16.270Z,18.17
2022-08-10T20:02:04.784Z,18.09
2022-08-10T20:04:46.621Z,18.04
2022-08-10T20:07:24.642Z,17.98
2022-08-10T20:10:09.253Z,17.94
2022-08-10T20:12:54.577Z,17.92
2022-08-10T20:15:42.151Z,17.90
2022-08-10T20:18:26.423Z,17.87
2022-08-10T20:21:25.532Z,17.81
2022-08-10T20:24:01.519Z,17.75
2022-08-10T20:26:41.357Z,17.73
2022-08-10T20:29:59.027Z,17.68
2022-08-10T20:32:23.555Z,17.62
2022-08-10T20:34:57.546Z,17.56
2022-08-10T20:38:02.807Z,17.51
2022-08-10T20:40:38.433Z,17.47
2022-08-10T20:43:15.516Z,17.44
2022-08-10T20:46:09.518Z,17.43
2022-08-10T20:49:04.665Z,17.41
2022-08-10T20:52:14.009Z,17.37
2022-08-10T20:54:52.457Z,17.30
2022-08-10T20:57:55.479Z,17.23
2022-08-10T21:00:42.641Z,17.17
2022-08-10T21:03:22.213Z,17.13
2022-08-10T21:06:09.501Z,17.08
2022-08-10T21:08:56.348Z,17.00
2022-08-10T21:11:30.026Z,16.89
2022-08-10T21:14:33.613Z,16.80
2022-08-10T21:17:03.370Z,16.73
2022-08-10T21:19:53.638Z,16.66
2022-08-10T21:22:46.119Z,16.58
2022-08-10T21:25:29.359Z,16.54
2022-08-10T21:28:50.147Z,16.48
2022-08-10T21:31:22.043Z,16.44
2022-08-10T21:34:09.942Z,16.42
2022-08-10T21:37:12.410Z,16.40
2022-08-10T21:40:32.365Z,16.33
2022-08-10T21:43:59.390Z,16.27
2022-08-10T21:47:11.420Z,16.22
2022-08-10T21:50:27.461Z,16.15
2022-08-10T21:53:43.896Z,16.10
2022-08-10T21:57:02.038Z,16.04
2022-08-10T22:00:03.216Z,15.98
2022-08-10T22:02:53.505Z,15.94
2022-08-10T22:05:49.884Z,15.91
2022-08-10T22:09:01.193Z,15.89
2022-08-10T22:11:52.249Z,15.87
2022-08-10T22:15:05.708Z,15.86
2022-08-10T22:21:45.472Z,15.77
2022-08-10T22:25:04.448Z,15.74
2022-08-10T22:27:59.336Z,15.72
2022-08-10T22:31:22.972Z,15.69
2022-08-10T22:31:25.967Z,15.81
2022-08-10T22:34:22.775Z,15.67
2022-08-10T22:37:48.847Z,15.63
2022-08-10T22:40:39.465Z,15.58
2022-08-10T22:43:36.326Z,15.54
2022-08-10T22:46:34.270Z,15.52
2022-08-10T22:49:02.736Z,15.48
2022-08-10T22:51:54.439Z,15.44
2022-08-10T22:54:57.503Z,15.42
2022-08-10T22:57:44.679Z,15.41
2022-08-10T23:00:14.625Z,15.39
2022-08-10T23:02:55.595Z,15.36
2022-08-10T23:05:34.753Z,15.33
2022-08-10T23:08:19.632Z,15.29
2022-08-10T23:11:05.675Z,15.25
2022-08-10T23:13:38.082Z,15.20
2022-08-10T23:16:32.644Z,15.14
2022-08-10T23:19:10.189Z,15.10
2022-08-10T23:22:05.987Z,15.08
2022-08-10T23:24:37.295Z,15.05
2022-08-10T23:27:12.942Z,15.03
2022-08-10T23:30:10.706Z,15.00
2022-08-10T23:32:43.883Z,14.96
2022-08-10T23:36:05.681Z,14.92
2022-08-10T23:38:12.546Z,14.88
2022-08-10T23:40:46.617Z,14.87
2022-08-10T23:43:28.784Z,14.85
2022-08-10T23:46:08.226Z,14.82
2022-08-10T23:48:38.367Z,14.80
2022-08-10T23:51:16.431Z,14.78
2022-08-10T23:53:48.202Z,14.75
2022-08-10T23:56:20.743Z,14.71
2022-08-10T23:58:55.925Z,14.66
